El Paso International Airport
KELP : now visible

Airfield :











YOU CAN JOIN US ON...

 
LOGIN :

Register | Disclaimer

   EN    FR    IT 

 









Legend :    VFR   Marginal VFR   IFR   Intensive IFR   Very Intensive IFR
Visi :
Ceiling :
>= 8 km
>= 3000ft
5 to 8 km
1000 to 3000 ft
1500m to 5 km
500 to 1000 ft
800 to 1500m
200 to 500 ft
< 800m
< 200 ft
Symbols :   Thunderstorms  Fog  Heavy snow  Heavy precipitations  Wind > 20 kt






- Airport Elevation : 3959 ft
- IATA code : ELP


KELP - El Paso International

CURRENT METAR :
  • 101551Z 16007KT 10SM FEW080 SCT250 33/09 A3008 RMK AO2 SLP095 T03330089

EXPIRED METARs :
  • 101451Z 17009KT 10SM FEW075 SCT250 32/09 A3008 RMK AO2 SLP095 T03170089 51021
  • 101351Z 15009KT 10SM FEW070 FEW250 30/11 A3007 RMK AO2 SLP093 T03000106

TAF KELP
Valid from the 10 at 12:00 until the 11 at 12:00 UTC


101120Z 1012/1112 15010KT P6SM FEW150
FM101700 13007KT P6SM FEW120
KZAB FIR / North America



MET'MAP, your aeronautical weather chart ! - Copyright ORBIFLY December 2007 - Disclaimer

ORBIFLY MET'MAP TEAM :

Programming & Development : Alexandra Zaïnal
Concept & original design : Baudouin d'Aumeries
Assistance for programming : Marc-Olivier Méhu
Technical & hardware support : Manuel Goepfert

Contact : metmap@orbifly.com




SOURCES & CREDITS :

   NOAA       Earth
Advisory